Aviation Digital Data Service (ADDS)

Output produced by METARs form (1122 UTC 21 December 2014)
found at http://aviationweather.gov/adds/metars/
 
KSAN 210907Z 2109/2212 VRB03KT P6SM BKN035 OVC250 
     FM211900 30007KT P6SM SCT035 BKN200 
     FM220100 VRB03KT P6SM BKN200